createdAt,value
2018-10-19T00:00:38.836Z,59.15
2018-10-19T00:03:08.820Z,62.48
2018-10-19T00:05:39.708Z,61.00
2018-10-19T00:08:10.672Z,58.00
2018-10-19T00:10:40.644Z,56.95
2018-10-19T00:13:10.697Z,59.38
2018-10-19T00:15:42.909Z,56.35
2018-10-19T00:18:12.845Z,56.77
2018-10-19T00:20:42.809Z,60.73
2018-10-19T00:23:12.724Z,55.35
2018-10-19T00:25:44.547Z,57.27
2018-10-19T00:28:14.445Z,55.45
2018-10-19T00:30:44.357Z,58.85
2018-10-19T00:33:14.357Z,57.13
2018-10-19T00:35:45.176Z,59.90
2018-10-19T00:38:18.825Z,58.15
2018-10-19T00:40:48.644Z,64.15
2018-10-19T00:43:19.620Z,60.25
2018-10-19T00:45:54.808Z,59.58
2018-10-19T00:48:25.784Z,59.53
2018-10-19T00:50:55.769Z,62.53
2018-10-19T00:53:29.480Z,59.25
2018-10-19T00:56:00.412Z,58.08
2018-10-19T00:58:30.416Z,58.52
2018-10-19T01:01:07.920Z,61.40
2018-10-19T01:03:41.033Z,60.03
2018-10-19T01:06:10.932Z,60.30
2018-10-19T01:08:41.876Z,61.58
2018-10-19T01:11:13.116Z,58.52
2018-10-19T01:13:44.052Z,62.15
2018-10-19T01:16:17.529Z,61.92
2018-10-19T01:18:49.372Z,57.85
2018-10-19T01:21:19.600Z,60.63
2018-10-19T01:23:53.188Z,60.40
2018-10-19T01:26:23.127Z,60.85
2018-10-19T01:28:54.089Z,61.23
2018-10-19T01:31:26.325Z,64.35
2018-10-19T01:33:57.172Z,61.75
2018-10-19T01:36:33.264Z,59.33
2018-10-19T01:39:09.333Z,60.40
2018-10-19T01:41:39.727Z,60.65
2018-10-19T01:44:10.989Z,61.18
2018-10-19T01:46:46.563Z,64.62
2018-10-19T01:49:20.595Z,64.12
2018-10-19T01:51:50.540Z,58.10
2018-10-19T01:54:20.424Z,59.63
2018-10-19T01:56:50.379Z,60.15
2018-10-19T01:59:20.264Z,60.83
2018-10-19T02:01:51.387Z,62.70
2018-10-19T02:04:21.349Z,64.05
2018-10-19T02:06:53.176Z,61.77
2018-10-19T02:09:29.896Z,64.60
2018-10-19T02:11:59.772Z,60.83
2018-10-19T02:14:36.750Z,60.38
2018-10-19T02:17:18.939Z,64.58
2018-10-19T02:19:50.876Z,60.45
2018-10-19T02:22:29.147Z,61.68
2018-10-19T02:25:00.370Z,63.20
2018-10-19T02:27:33.699Z,67.78
2018-10-19T02:30:05.220Z,62.43
2018-10-19T02:32:35.468Z,63.65
2018-10-19T02:35:07.416Z,65.03
2018-10-19T02:37:37.384Z,73.28
2018-10-19T02:40:13.120Z,66.20
2018-10-19T02:42:42.988Z,64.80
2018-10-19T02:45:13.037Z,65.20
2018-10-19T02:47:42.892Z,66.42
2018-10-19T02:50:14.748Z,67.53
2018-10-19T02:52:46.684Z,61.50
2018-10-19T02:55:16.571Z,60.80
2018-10-19T02:57:46.472Z,59.77
2018-10-19T03:00:16.564Z,62.95
2018-10-19T03:02:48.467Z,59.98
2018-10-19T03:05:18.419Z,63.25
2018-10-19T03:07:48.296Z,58.42
2018-10-19T03:10:18.496Z,60.58
2018-10-19T03:12:49.441Z,61.02
2018-10-19T03:15:20.313Z,62.60
2018-10-19T03:17:50.121Z,59.98
2018-10-19T03:20:24.368Z,60.67
2018-10-19T03:22:54.299Z,61.58
2018-10-19T03:25:24.228Z,62.03
2018-10-19T03:27:55.005Z,57.78
2018-10-19T03:30:26.913Z,63.30
2018-10-19T03:32:56.828Z,64.62
2018-10-19T03:35:29.684Z,63.75
2018-10-19T03:37:59.588Z,64.53
2018-10-19T03:40:29.400Z,65.72
2018-10-19T03:43:05.843Z,66.85
2018-10-19T03:45:37.722Z,73.57
2018-10-19T03:48:07.528Z,68.72
2018-10-19T03:50:38.422Z,67.62
2018-10-19T03:53:08.334Z,69.37
2018-10-19T03:55:38.084Z,74.53
2018-10-19T03:58:08.907Z,70.15
2018-10-19T04:00:43.767Z,79.75
2018-10-19T04:03:16.837Z,81.90
2018-10-19T04:05:47.560Z,80.72
2018-10-19T04:08:17.360Z,77.47
2018-10-19T04:10:52.788Z,77.05
2018-10-19T04:13:23.659Z,78.87
2018-10-19T04:15:55.524Z,76.12
2018-10-19T04:18:25.360Z,78.35
2018-10-19T04:20:55.340Z,78.87
2018-10-19T04:23:28.644Z,80.92
2018-10-19T04:25:59.500Z,83.45
2018-10-19T04:28:34.433Z,83.35
2018-10-19T04:31:04.356Z,84.67
2018-10-19T04:33:34.232Z,81.60
2018-10-19T04:36:09.440Z,80.70
2018-10-19T04:38:40.208Z,85.72
2018-10-19T04:41:10.189Z,82.05
2018-10-19T04:43:43.392Z,80.90
2018-10-19T04:46:13.264Z,83.30
2018-10-19T04:48:43.156Z,80.87
2018-10-19T04:51:13.064Z,81.08
2018-10-19T04:53:42.960Z,84.77
2018-10-19T04:56:26.036Z,78.70
2018-10-19T04:58:57.876Z,83.72
2018-10-19T05:01:28.712Z,82.85
2018-10-19T05:03:58.584Z,75.60
2018-10-19T05:06:48.097Z,85.67
2018-10-19T05:09:17.900Z,81.37
2018-10-19T05:11:48.704Z,79.95
2018-10-19T05:14:18.587Z,82.75
2018-10-19T05:16:54.604Z,81.65
2018-10-19T05:19:26.360Z,86.32
2018-10-19T05:21:56.268Z,83.70
2018-10-19T05:24:34.283Z,86.02
2018-10-19T05:27:05.707Z,82.50
2018-10-19T05:29:38.764Z,77.82
2018-10-19T05:32:18.452Z,77.72
2018-10-19T05:34:56.300Z,80.10
2018-10-19T05:37:28.104Z,77.05
2018-10-19T05:39:57.884Z,77.75
2018-10-19T05:42:27.709Z,79.30
2018-10-19T05:44:58.552Z,79.15
2018-10-19T05:47:29.480Z,80.72
2018-10-19T05:50:00.325Z,80.40
2018-10-19T05:52:32.208Z,83.25
2018-10-19T05:55:04.080Z,75.72
2018-10-19T05:57:34.052Z,75.97
2018-10-19T06:00:11.316Z,71.95
2018-10-19T06:02:43.140Z,75.35
2018-10-19T06:05:16.706Z,74.37
2018-10-19T06:07:47.452Z,73.20
2018-10-19T06:10:31.471Z,79.00
2018-10-19T06:13:01.228Z,81.15
2018-10-19T06:15:31.060Z,78.30
2018-10-19T06:18:10.579Z,85.15
2018-10-19T06:20:40.455Z,83.03
2018-10-19T06:23:14.017Z,90.17
2018-10-19T06:25:43.946Z,86.20
2018-10-19T06:28:13.748Z,84.92
2018-10-19T06:30:43.600Z,88.62
2018-10-19T06:33:23.051Z,88.72
2018-10-19T06:35:58.300Z,90.05
2018-10-19T06:38:30.187Z,93.40
2018-10-19T06:41:02.138Z,89.37
2018-10-19T06:43:31.848Z,92.72
2018-10-19T06:46:01.736Z,94.20
2018-10-19T06:48:31.567Z,94.70
2018-10-19T06:51:02.351Z,95.03
2018-10-19T06:53:35.300Z,91.63
2018-10-19T06:56:05.189Z,89.60
2018-10-19T06:58:38.863Z,91.50
2018-10-19T07:01:09.764Z,90.60
2018-10-19T07:03:42.584Z,81.95
2018-10-19T07:06:13.489Z,84.07
2018-10-19T07:08:44.192Z,82.97
2018-10-19T07:11:14.153Z,76.33
2018-10-19T07:13:43.987Z,74.47
2018-10-19T07:16:15.820Z,73.40
2018-10-19T07:18:46.598Z,72.20
2018-10-19T07:21:17.435Z,71.40
2018-10-19T07:23:47.312Z,68.03
2018-10-19T07:26:17.162Z,67.00
2018-10-19T07:28:52.749Z,67.07
2018-10-19T07:31:24.541Z,69.00
2018-10-19T07:33:55.463Z,65.00
2018-10-19T07:36:31.459Z,61.33
2018-10-19T07:39:14.800Z,61.93
2018-10-19T07:41:44.692Z,61.53
2018-10-19T07:44:15.796Z,60.20
2018-10-19T07:46:45.800Z,62.57
2018-10-19T07:49:16.654Z,58.73
2018-10-19T07:51:46.703Z,58.53
2018-10-19T07:54:22.123Z,60.53
2018-10-19T07:56:56.156Z,57.37
2018-10-19T07:59:25.912Z,55.63
2018-10-19T08:01:55.849Z,55.00
2018-10-19T08:04:27.695Z,55.30
2018-10-19T08:06:58.460Z,55.70
2018-10-19T08:09:28.220Z,55.90
2018-10-19T08:11:59.005Z,56.97
2018-10-19T08:14:30.763Z,55.23
2018-10-19T08:17:11.108Z,55.40
2018-10-19T08:19:49.431Z,55.07
2018-10-19T08:22:20.307Z,53.50
2018-10-19T08:24:52.880Z,53.60
2018-10-19T08:27:23.079Z,54.23
2018-10-19T08:29:52.860Z,53.30
2018-10-19T08:32:25.952Z,51.53
2018-10-19T08:34:57.817Z,53.97
2018-10-19T08:37:29.773Z,52.33
2018-10-19T08:39:59.615Z,54.97
2018-10-19T08:42:29.443Z,52.43
2018-10-19T08:44:59.324Z,53.67
2018-10-19T08:47:29.080Z,54.17
2018-10-19T08:50:03.243Z,53.10
2018-10-19T08:52:33.044Z,53.83
2018-10-19T08:55:05.026Z,48.77
2018-10-19T08:57:35.055Z,52.17
2018-10-19T09:00:05.593Z,48.90
2018-10-19T09:02:35.375Z,48.90
2018-10-19T09:05:05.378Z,48.53
2018-10-19T09:07:35.280Z,51.23
2018-10-19T09:10:09.555Z,50.53
2018-10-19T09:12:39.545Z,52.23
2018-10-19T09:15:09.414Z,51.80
2018-10-19T09:17:41.260Z,47.57
2018-10-19T09:20:11.051Z,51.40
2018-10-19T09:22:41.807Z,48.47
2018-10-19T09:25:16.148Z,48.80
2018-10-19T09:27:46.167Z,48.17
2018-10-19T09:30:19.219Z,49.83
2018-10-19T09:32:49.135Z,49.40
2018-10-19T09:35:22.799Z,52.20
2018-10-19T09:37:55.695Z,51.77
2018-10-19T09:40:33.111Z,49.83
2018-10-19T09:43:14.146Z,46.67
2018-10-19T09:45:43.872Z,47.07
2018-10-19T09:48:13.660Z,49.43
2018-10-19T09:50:43.479Z,47.17
2018-10-19T09:53:19.436Z,46.20
2018-10-19T09:55:49.323Z,46.87
2018-10-19T09:58:23.675Z,47.33
2018-10-19T10:00:58.271Z,46.20
2018-10-19T10:03:29.140Z,48.20
2018-10-19T10:05:59.976Z,48.60
2018-10-19T10:08:29.832Z,48.33
2018-10-19T10:11:03.091Z,46.37
2018-10-19T10:13:33.911Z,48.60
2018-10-19T10:16:08.659Z,46.87
2018-10-19T10:18:38.712Z,47.10
2018-10-19T10:21:12.188Z,45.80
2018-10-19T10:23:42.564Z,45.93
2018-10-19T10:26:13.072Z,45.90
2018-10-19T10:28:42.996Z,44.93
2018-10-19T10:31:13.883Z,45.70
2018-10-19T10:33:43.728Z,45.50
2018-10-19T10:36:13.536Z,43.97
2018-10-19T10:38:43.412Z,44.90
2018-10-19T10:41:13.196Z,44.90
2018-10-19T10:43:43.963Z,45.33
2018-10-19T10:46:13.973Z,43.20
2018-10-19T10:48:44.692Z,43.87
2018-10-19T10:51:24.388Z,41.83
2018-10-19T10:53:54.352Z,41.93
2018-10-19T10:56:29.720Z,42.67
2018-10-19T10:58:59.643Z,44.47
2018-10-19T11:01:34.446Z,44.17
2018-10-19T11:04:04.243Z,43.37
2018-10-19T11:06:34.093Z,42.10
2018-10-19T11:09:10.999Z,41.30
2018-10-19T11:11:40.984Z,43.03
2018-10-19T11:14:11.986Z,41.67
2018-10-19T11:16:41.777Z,43.40
2018-10-19T11:19:12.597Z,42.17
2018-10-19T11:21:42.324Z,43.40
2018-10-19T11:24:19.148Z,38.80
2018-10-19T11:26:49.051Z,38.10
2018-10-19T11:29:24.684Z,39.60
2018-10-19T11:31:55.468Z,39.53
2018-10-19T11:34:25.336Z,39.57
2018-10-19T11:36:55.187Z,40.07
2018-10-19T11:39:25.089Z,38.47
2018-10-19T11:41:54.899Z,39.60
2018-10-19T11:44:24.707Z,41.17
2018-10-19T11:46:54.608Z,40.33
2018-10-19T11:49:25.399Z,40.67
2018-10-19T11:51:59.090Z,40.50
2018-10-19T11:54:28.943Z,40.43
2018-10-19T11:56:59.801Z,42.30
2018-10-19T11:59:29.627Z,41.27
2018-10-19T12:02:10.032Z,43.00
2018-10-19T12:04:40.212Z,40.33
2018-10-19T12:07:10.130Z,39.27
2018-10-19T12:09:40.871Z,38.90
2018-10-19T12:12:10.684Z,38.50
2018-10-19T12:14:40.575Z,36.50
2018-10-19T12:17:20.120Z,35.27
2018-10-19T12:19:50.016Z,33.73
2018-10-19T12:22:19.848Z,33.20
2018-10-19T12:24:54.379Z,34.60
2018-10-19T12:27:27.231Z,32.87
2018-10-19T12:30:07.763Z,35.37
2018-10-19T12:32:42.391Z,33.70
2018-10-19T12:35:14.262Z,35.23
2018-10-19T12:37:45.116Z,34.73
2018-10-19T12:40:15.067Z,34.27
2018-10-19T12:42:44.991Z,34.10
2018-10-19T12:46:35.799Z,34.47
2018-10-19T12:49:10.091Z,35.07
2018-10-19T12:51:40.899Z,35.90
2018-10-19T12:54:16.230Z,33.73
2018-10-19T12:56:49.816Z,34.33
2018-10-19T12:59:20.691Z,34.20
2018-10-19T13:01:50.681Z,33.90
2018-10-19T13:04:25.739Z,35.40
2018-10-19T13:06:55.646Z,32.20
2018-10-19T13:09:25.471Z,33.47
2018-10-19T13:11:55.371Z,32.37
2018-10-19T13:14:25.152Z,33.07
2018-10-19T13:16:58.783Z,34.17
2018-10-19T13:19:28.608Z,33.03
2018-10-19T13:21:58.535Z,32.07
2018-10-19T13:24:28.523Z,32.07
2018-10-19T13:26:59.463Z,33.20
2018-10-19T13:29:29.300Z,34.17
2018-10-19T13:32:02.760Z,33.53
2018-10-19T13:34:32.574Z,33.40
2018-10-19T13:37:03.435Z,34.73
2018-10-19T13:39:33.555Z,35.57
2018-10-19T13:42:04.483Z,33.40
2018-10-19T13:44:36.315Z,33.23
2018-10-19T13:47:23.392Z,35.03
2018-10-19T13:49:53.315Z,33.53
2018-10-19T13:52:23.152Z,33.43
2018-10-19T13:54:52.964Z,33.27
2018-10-19T13:57:22.783Z,33.57
2018-10-19T13:59:53.562Z,32.20
2018-10-19T14:02:23.354Z,32.83
2018-10-19T14:04:53.232Z,31.90
2018-10-19T14:07:23.072Z,32.73
2018-10-19T14:09:58.623Z,31.37
2018-10-19T14:12:28.547Z,33.37
2018-10-19T14:15:11.656Z,34.77
2018-10-19T14:17:41.931Z,31.20
2018-10-19T14:20:16.731Z,31.57
2018-10-19T14:22:49.719Z,33.10
2018-10-19T14:25:20.531Z,32.10
2018-10-19T14:27:55.376Z,31.70
2018-10-19T14:30:28.375Z,30.93
2018-10-19T14:32:59.230Z,32.30
2018-10-19T14:35:28.980Z,33.40
2018-10-19T14:38:00.827Z,31.43
2018-10-19T14:40:40.263Z,31.40
2018-10-19T14:43:10.211Z,32.40
2018-10-19T14:45:40.128Z,37.80
2018-10-19T14:48:10.059Z,34.07
2018-10-19T14:50:41.019Z,33.73
2018-10-19T14:53:11.087Z,36.37
2018-10-19T14:55:40.927Z,36.27
2018-10-19T14:58:12.751Z,35.57
2018-10-19T15:00:44.495Z,36.90
2018-10-19T15:03:16.470Z,36.23
2018-10-19T15:05:46.259Z,35.40
2018-10-19T15:08:16.155Z,37.30
2018-10-19T15:10:47.285Z,37.97
2018-10-19T15:13:23.511Z,35.00
2018-10-19T15:15:55.391Z,36.83
2018-10-19T15:18:25.266Z,39.17
2018-10-19T15:20:57.150Z,38.37
2018-10-19T15:23:27.991Z,39.83
2018-10-19T15:25:57.919Z,38.70
2018-10-19T15:28:27.843Z,38.53
2018-10-19T15:30:58.743Z,39.20
2018-10-19T15:33:41.823Z,39.47
2018-10-19T15:36:14.835Z,40.30
2018-10-19T15:38:54.106Z,38.63
2018-10-19T15:41:24.947Z,39.70
2018-10-19T15:43:54.845Z,41.67
2018-10-19T15:46:25.698Z,42.90
2018-10-19T15:48:59.679Z,43.73
2018-10-19T15:51:29.590Z,43.40
2018-10-19T15:53:59.708Z,41.87
2018-10-19T15:56:30.575Z,42.13
2018-10-19T15:59:08.179Z,41.77
2018-10-19T16:01:39.147Z,42.13
2018-10-19T16:04:15.455Z,41.03
2018-10-19T16:06:45.358Z,43.30
2018-10-19T16:09:17.219Z,41.93
2018-10-19T16:11:47.163Z,41.80
2018-10-19T16:14:17.046Z,42.33
2018-10-19T16:16:47.859Z,44.43
2018-10-19T16:19:27.154Z,44.47
2018-10-19T16:22:00.696Z,44.60
2018-10-19T16:24:30.678Z,44.50
2018-10-19T16:27:00.580Z,43.80
2018-10-19T16:29:30.482Z,46.97
2018-10-19T16:35:04.170Z,44.07
2018-10-19T16:37:39.882Z,46.53
2018-10-19T16:40:10.818Z,45.23
2018-10-19T16:42:40.670Z,48.17
2018-10-19T16:45:11.574Z,46.40
2018-10-19T16:47:41.342Z,48.10
2018-10-19T16:50:11.251Z,45.60
2018-10-19T16:52:41.208Z,46.87
2018-10-19T16:55:21.043Z,46.30
2018-10-19T16:57:58.775Z,65.97
2018-10-19T17:00:29.731Z,56.87
2018-10-19T17:03:00.810Z,49.10
2018-10-19T17:05:32.583Z,47.30
2018-10-19T17:08:26.417Z,48.00
2018-10-19T17:10:56.386Z,47.80
2018-10-19T17:13:26.215Z,49.27
2018-10-19T17:16:00.295Z,50.47
2018-10-19T17:18:32.189Z,50.50
2018-10-19T17:21:14.628Z,45.10
2018-10-19T17:23:44.527Z,50.30
2018-10-19T17:26:14.342Z,49.20
2018-10-19T17:28:45.211Z,50.77
2018-10-19T17:31:17.181Z,49.70
2018-10-19T17:33:52.327Z,50.90
2018-10-19T17:36:21.993Z,50.20
2018-10-19T17:38:58.099Z,53.50
2018-10-19T17:41:28.180Z,52.30
2018-10-19T17:43:57.987Z,53.17
2018-10-19T17:46:27.895Z,51.73
2018-10-19T17:48:57.911Z,54.33
2018-10-19T17:51:29.818Z,52.70
2018-10-19T17:53:59.875Z,50.93
2018-10-19T17:56:29.713Z,50.47
2018-10-19T17:58:59.667Z,51.77
2018-10-19T18:01:38.359Z,52.23
2018-10-19T18:04:09.227Z,50.57
2018-10-19T18:06:39.116Z,50.50
2018-10-19T18:09:11.010Z,52.30
2018-10-19T18:11:41.259Z,53.67
2018-10-19T18:14:10.995Z,53.27
2018-10-19T18:16:42.858Z,54.37
2018-10-19T18:19:18.122Z,52.90
2018-10-19T18:21:55.121Z,53.13
2018-10-19T18:24:25.899Z,54.83
2018-10-19T18:26:55.854Z,52.53
2018-10-19T18:29:37.455Z,54.80
2018-10-19T18:32:07.421Z,54.40
2018-10-19T18:34:39.438Z,55.27
2018-10-19T18:37:10.479Z,54.40
2018-10-19T18:39:42.414Z,54.27
2018-10-19T18:42:12.374Z,52.73
2018-10-19T18:44:42.254Z,54.03
2018-10-19T18:47:12.318Z,58.70
2018-10-19T18:49:49.962Z,57.77
2018-10-19T18:52:19.999Z,52.27
2018-10-19T18:54:50.894Z,55.10
2018-10-19T18:57:20.934Z,53.80
2018-10-19T18:59:52.768Z,55.60
2018-10-19T19:02:22.730Z,54.63
2018-10-19T19:04:52.705Z,57.03
2018-10-19T19:07:24.115Z,56.77
2018-10-19T19:10:00.152Z,56.37
2018-10-19T19:12:30.034Z,58.67
2018-10-19T19:15:00.043Z,56.13
2018-10-19T19:17:29.966Z,58.35
2018-10-19T19:20:06.221Z,56.40
2018-10-19T19:22:36.182Z,62.90
2018-10-19T19:25:13.251Z,60.97
2018-10-19T19:27:43.395Z,59.77
2018-10-19T19:30:13.410Z,60.78
2018-10-19T19:32:52.447Z,59.40
2018-10-19T19:35:24.390Z,62.27
2018-10-19T19:37:58.082Z,64.50
2018-10-19T19:40:34.043Z,65.15
2018-10-19T19:43:03.839Z,63.65
2018-10-19T19:45:33.718Z,63.87
2018-10-19T19:48:10.783Z,66.30
2018-10-19T19:50:40.731Z,66.55
2018-10-19T19:53:12.694Z,65.60
2018-10-19T19:55:42.595Z,68.35
2018-10-19T19:58:16.510Z,66.02
2018-10-19T20:00:47.335Z,64.32
2018-10-19T20:03:20.303Z,64.32
2018-10-19T20:05:50.289Z,66.72
2018-10-19T20:08:20.155Z,65.75
2018-10-19T20:10:53.330Z,71.12
2018-10-19T20:13:23.287Z,70.60
2018-10-19T20:15:56.965Z,69.80
2018-10-19T20:18:27.884Z,65.83
2018-10-19T20:21:00.923Z,66.97
2018-10-19T20:23:30.788Z,67.25
2018-10-19T20:26:00.773Z,66.57
2018-10-19T20:28:30.630Z,66.62
2018-10-19T20:31:02.503Z,66.72
2018-10-19T20:33:33.387Z,65.12
2018-10-19T20:36:08.115Z,65.00
2018-10-19T20:38:38.951Z,60.28
2018-10-19T20:41:09.876Z,60.85
2018-10-19T20:43:39.747Z,60.50
2018-10-19T20:46:11.575Z,63.08
2018-10-19T20:48:41.503Z,64.77
2018-10-19T20:51:13.388Z,66.20
2018-10-19T20:53:45.223Z,60.90
2018-10-19T20:56:19.860Z,64.72
2018-10-19T20:58:50.643Z,65.25
2018-10-19T21:01:24.476Z,63.70
2018-10-19T21:03:56.384Z,65.97
2018-10-19T21:06:28.327Z,62.15
2018-10-19T21:08:58.207Z,65.05
2018-10-19T21:11:28.139Z,64.75
2018-10-19T21:13:59.024Z,65.83
2018-10-19T21:16:30.831Z,66.28
2018-10-19T21:19:00.770Z,64.20
2018-10-19T21:21:34.367Z,67.42
2018-10-19T21:24:04.275Z,61.75
2018-10-19T21:26:34.279Z,62.88
2018-10-19T21:29:04.266Z,62.88
2018-10-19T21:31:35.227Z,62.80
2018-10-19T21:34:06.176Z,62.83
2018-10-19T21:36:36.179Z,63.50
2018-10-19T21:39:09.717Z,62.10
2018-10-19T21:41:43.460Z,61.77
2018-10-19T21:44:16.573Z,62.58
2018-10-19T21:46:48.343Z,63.90
2018-10-19T21:49:19.246Z,66.95
2018-10-19T21:51:49.102Z,65.35
2018-10-19T21:54:18.998Z,70.55
2018-10-19T21:56:51.963Z,64.53
2018-10-19T21:59:22.391Z,63.83
2018-10-19T22:04:37.695Z,60.67
2018-10-19T22:07:07.591Z,57.85
2018-10-19T22:12:19.943Z,57.60
2018-10-19T22:14:50.932Z,54.53
2018-10-19T22:17:20.774Z,55.78
2018-10-19T22:19:50.767Z,56.55
2018-10-19T22:22:21.791Z,57.73
2018-10-19T22:24:52.728Z,55.98
2018-10-19T22:27:23.658Z,58.20
2018-10-19T22:29:54.562Z,56.18
2018-10-19T22:32:25.395Z,61.88
2018-10-19T22:35:07.025Z,61.33
2018-10-19T22:37:38.946Z,59.15
2018-10-19T22:40:13.562Z,59.08
2018-10-19T22:42:46.726Z,59.98
2018-10-19T22:45:16.570Z,61.60
2018-10-19T22:47:46.370Z,60.80
2018-10-19T22:50:17.350Z,55.38
2018-10-19T22:52:48.274Z,57.48
2018-10-19T22:55:21.238Z,56.45
2018-10-19T22:57:52.139Z,57.78
2018-10-19T23:00:22.136Z,58.58
2018-10-19T23:02:53.002Z,56.83
2018-10-19T23:05:23.302Z,58.58
2018-10-19T23:07:54.282Z,58.38
2018-10-19T23:10:24.211Z,59.58
2018-10-19T23:12:56.101Z,61.42
2018-10-19T23:15:33.502Z,61.65
2018-10-19T23:18:04.415Z,65.15
2018-10-19T23:20:36.346Z,60.58
2018-10-19T23:23:06.496Z,60.95
2018-10-19T23:25:40.211Z,59.98
2018-10-19T23:28:12.158Z,61.55
2018-10-19T23:30:45.559Z,56.63
2018-10-19T23:33:19.450Z,61.48
2018-10-19T23:35:49.474Z,48.60
2018-10-19T23:38:23.770Z,49.88
2018-10-19T23:41:03.592Z,56.40
2018-10-19T23:43:38.611Z,60.30
2018-10-19T23:46:09.446Z,51.53
2018-10-19T23:48:50.774Z,51.15
2018-10-19T23:51:24.069Z,60.73
2018-10-19T23:53:54.890Z,58.75
2018-10-19T23:56:25.126Z,58.25
2018-10-19T23:58:56.004Z,68.07
